EST,Max TemperatureF,Mean TemperatureF,Min TemperatureF,Max Dew PointF,MeanDew PointF,Min DewpointF,Max Humidity, Mean Humidity, Min Humidity, Max Sea Level PressureIn, Mean Sea Level PressureIn, Min Sea Level PressureIn, Max VisibilityMiles, Mean VisibilityMiles, Min VisibilityMiles, Max Wind SpeedMPH, Mean Wind SpeedMPH, Max Gust SpeedMPH,PrecipitationIn, CloudCover, Events, WindDirDegrees
2013-2-1,24,20,17,16,11,6,86,68,48,30.23,30.00,29.73,10,5,0,17,11,28,0.00,8,Snow,278
2013-2-2,21,16,10,16,8,2,86,69,54,30.24,30.09,29.96,10,7,2,16,9,21,0.00,6,Snow,223
2013-2-3,25,15,5,21,15,2,88,79,66,29.98,29.81,29.72,10,4,1,18,2,24,0.02,8,Snow,287
2013-2-4,23,15,7,15,9,3,84,66,50,29.97,29.93,29.86,10,8,2,16,6,24,0.00,7,Snow,278
2013-2-5,28,23,18,22,17,13,88,75,58,29.96,29.89,29.82,10,8,2,6,2,,0.00,7,Snow,69
2013-2-6,30,20,10,22,15,5,89,68,36,30.40,30.11,29.90,10,7,2,14,5,23,0.00,5,Snow,271
2013-2-7,35,21,7,17,11,3,84,62,46,30.47,30.35,30.18,10,10,10,15,3,20,0.00,5,,145
2013-2-8,35,28,19,30,26,12,93,81,54,30.14,29.88,29.76,10,5,0,20,4,31,0.19,8,Fog-Snow,20
2013-2-9,23,13,0,13,9,-4,92,72,60,30.45,30.26,29.98,10,6,2,14,6,24,0.00,6,Snow,338
2013-2-10,36,14,-7,15,5,-11,91,62,37,30.51,30.35,30.12,10,10,10,8,2,,0.00,2,,130
2013-2-11,44,40,35,37,28,15,81,68,43,30.10,29.81,29.62,10,10,10,15,9,23,0.01,8,Rain,221
2013-2-12,37,34,32,24,22,20,64,61,56,29.99,29.90,29.75,10,10,10,24,14,33,0.00,8,,273
2013-2-13,42,36,30,25,22,20,75,61,45,29.93,29.80,29.69,10,10,10,7,1,,0.00,5,,57
2013-2-14,44,34,24,30,24,18,81,71,43,29.96,29.88,29.79,10,10,8,12,4,18,0.00,6,Rain,232
2013-2-15,42,35,28,30,23,16,70,59,41,30.04,29.92,29.82,10,10,10,21,9,30,0.00,5,,261
2013-2-16,30,24,19,17,11,7,71,55,38,30.04,29.99,29.90,10,10,10,12,6,,0.00,5,,324
2013-2-17,21,16,12,16,8,-1,80,65,45,30.14,29.93,29.82,10,6,1,23,8,33,0.00,7,Snow,328
2013-2-18,35,22,10,14,6,1,67,52,28,30.31,30.19,30.04,10,10,10,8,5,,0.00,2,,216
2013-2-19,37,31,25,32,24,13,87,68,42,30.03,29.76,29.62,10,8,2,17,5,29,0.05,6,Rain-Snow,208
2013-2-20,27,24,19,16,9,7,80,57,48,30.06,29.91,29.78,10,8,1,25,14,36,0.00,7,Rain-Snow,274
2013-2-21,26,22,19,15,11,9,78,62,50,30.41,30.18,30.04,10,8,2,17,11,25,0.00,8,Rain-Snow,303
2013-2-22,35,28,21,25,19,15,82,70,52,30.42,30.25,30.13,10,9,2,13,4,24,0.01,7,Snow,152
2013-2-23,39,32,26,34,29,22,100,82,66,30.11,29.94,29.83,10,8,0,9,5,18,0.02,8,Fog-Rain,199
2013-2-24,33,30,26,29,24,19,100,77,56,30.05,29.91,29.83,10,6,0,17,5,25,0.00,8,Fog-Snow,286
2013-2-25,39,30,21,23,21,18,88,65,45,30.24,30.18,30.06,10,10,10,14,5,,0.00,6,,309
2013-2-26,41,29,17,31,26,14,92,78,47,30.25,30.02,29.83,10,6,1,21,5,26,0.42,5,Rain-Snow,92
2013-2-27,37,35,33,35,32,28,100,91,81,29.83,29.62,29.54,10,5,1,13,5,,0.45,8,Rain-Snow,109
2013-2-28,37,35,33,34,31,28,100,84,68,29.69,29.59,29.55,10,7,1,9,3,,0.07,8,Rain-Snow,254